Time,TemperatureF,DewpointF,PressureIn,WindDirection,WindDirectionDegrees,WindSpeedMPH,WindSpeedGustMPH,Humidity,HourlyPrecipIn,Conditions,Clouds,dailyrainin,SoftwareType,DateUTC
2013-01-03 00:04:00,2.0,-1.2,29.52,NNE,33,3.0,3.0,86,0.00,,---,0.00,VWS V14.01,2013-01-03 09:04:00,
2013-01-03 00:09:00,2.0,-1.0,29.52,NNE,30,1.0,2.0,87,0.00,,---,0.00,VWS V14.01,2013-01-03 09:09:00,
2013-01-03 00:14:00,2.1,-0.9,29.53,NNE,30,1.0,1.0,87,0.00,,---,0.00,VWS V14.01,2013-01-03 09:14:00,
2013-01-03 00:19:00,2.2,-0.8,29.53,NNE,30,2.0,2.0,87,0.00,,---,0.00,VWS V14.01,2013-01-03 09:19:00,
2013-01-03 00:24:00,2.3,-0.7,29.53,NNE,30,2.0,2.0,87,0.00,,---,0.00,VWS V14.01,2013-01-03 09:24:00,
2013-01-03 00:29:00,2.4,-0.6,29.53,NNE,30,1.0,1.0,87,0.00,,---,0.00,VWS V14.01,2013-01-03 09:29:00,
2013-01-03 00:34:00,2.4,-0.6,29.54,NE,36,0.0,0.0,87,0.00,,---,0.00,VWS V14.01,2013-01-03 09:34:00,
2013-01-03 00:39:00,2.4,-0.6,29.54,NE,36,1.0,2.0,87,0.00,,---,0.00,VWS V14.01,2013-01-03 09:39:00,
2013-01-03 00:44:00,2.5,-0.5,29.54,NE,36,1.0,1.0,87,0.00,,---,0.00,VWS V14.01,2013-01-03 09:44:00,
2013-01-03 00:49:00,2.6,-0.6,29.54,NE,34,1.0,1.0,86,0.00,,---,0.00,VWS V14.01,2013-01-03 09:49:00,
2013-01-03 00:54:00,2.6,-0.6,29.54,NE,34,2.0,2.0,86,0.00,,---,0.00,VWS V14.01,2013-01-03 09:54:00,
2013-01-03 00:59:00,2.7,-0.3,29.54,NE,34,1.0,2.0,87,0.00,,---,0.00,VWS V14.01,2013-01-03 09:59:00,
2013-01-03 01:04:00,2.7,-0.5,29.54,NE,41,3.0,3.0,86,0.00,,---,0.00,VWS V14.01,2013-01-03 10:04:00,
2013-01-03 01:09:00,2.7,-0.5,29.54,NE,49,2.0,2.0,86,0.00,,---,0.00,VWS V14.01,2013-01-03 10:09:00,
2013-01-03 01:14:00,2.7,-0.5,29.54,NE,49,1.0,1.0,86,0.00,,---,0.00,VWS V14.01,2013-01-03 10:14:00,
2013-01-03 01:19:00,2.8,-0.4,29.54,NE,34,1.0,2.0,86,0.00,,---,0.00,VWS V14.01,2013-01-03 10:19:00,
2013-01-03 01:24:00,2.8,-0.2,29.54,NE,34,1.0,1.0,87,0.00,,---,0.00,VWS V14.01,2013-01-03 10:24:00,
2013-01-03 01:29:00,2.8,-0.2,29.54,North,360,2.0,2.0,87,0.00,,---,0.00,VWS V14.01,2013-01-03 10:29:00,
2013-01-03 01:34:00,2.8,-0.2,29.54,NNW,344,1.0,2.0,87,0.00,,---,0.00,VWS V14.01,2013-01-03 10:34:00,
2013-01-03 01:39:00,2.8,-0.2,29.54,NNW,345,2.0,2.0,87,0.00,,---,0.00,VWS V14.01,2013-01-03 10:39:00,
2013-01-03 01:44:00,2.8,-0.2,29.54,North,355,2.0,2.0,87,0.00,,---,0.00,VWS V14.01,2013-01-03 10:44:00,
2013-01-03 01:49:00,2.9,-0.1,29.54,North,9,3.0,3.0,87,0.00,,---,0.00,VWS V14.01,2013-01-03 10:49:00,
2013-01-03 01:54:00,2.8,-0.4,29.54,North,355,0.0,2.0,86,0.00,,---,0.00,VWS V14.01,2013-01-03 10:54:00,
2013-01-03 01:59:00,2.8,-0.4,29.54,North,11,2.0,4.0,86,0.00,,---,0.00,VWS V14.01,2013-01-03 10:59:00,
2013-01-03 02:04:00,2.8,-0.4,29.54,NNE,13,2.0,2.0,86,0.00,,---,0.00,VWS V14.01,2013-01-03 11:04:00,
2013-01-03 02:09:00,2.8,-0.4,29.54,North,360,2.0,2.0,86,0.00,,---,0.00,VWS V14.01,2013-01-03 11:09:00,
2013-01-03 02:14:00,2.8,-0.4,29.53,North,5,3.0,3.0,86,0.00,,---,0.00,VWS V14.01,2013-01-03 11:14:00,
2013-01-03 02:19:00,2.8,-0.4,29.54,North,5,1.0,1.0,86,0.00,,---,0.00,VWS V14.01,2013-01-03 11:19:00,
2013-01-03 02:24:00,2.8,-0.4,29.54,North,5,2.0,2.0,86,0.00,,---,0.00,VWS V14.01,2013-01-03 11:24:00,
2013-01-03 02:29:00,2.8,-0.4,29.53,North,9,2.0,2.0,86,0.00,,---,0.00,VWS V14.01,2013-01-03 11:29:00,
2013-01-03 02:34:00,2.8,-0.4,29.54,North,9,1.0,1.0,86,0.00,,---,0.00,VWS V14.01,2013-01-03 11:34:00,
2013-01-03 02:39:00,2.8,-0.4,29.54,North,351,1.0,1.0,86,0.00,,---,0.00,VWS V14.01,2013-01-03 11:39:00,
2013-01-03 02:44:00,2.9,-0.1,29.54,North,351,1.0,1.0,87,0.00,,---,0.00,VWS V14.01,2013-01-03 11:44:00,
2013-01-03 02:49:00,3.0,0.0,29.54,North,351,1.0,2.0,87,0.00,,---,0.00,VWS V14.01,2013-01-03 11:49:00,
2013-01-03 02:54:00,3.1,0.1,29.54,North,351,1.0,1.0,87,0.00,,---,0.00,VWS V14.01,2013-01-03 11:54:00,
2013-01-03 02:59:00,3.1,0.1,29.54,North,351,1.0,2.0,87,0.00,,---,0.00,VWS V14.01,2013-01-03 11:59:00,
2013-01-03 03:04:00,3.3,0.3,29.54,North,351,1.0,2.0,87,0.00,,---,0.00,VWS V14.01,2013-01-03 12:04:00,
2013-01-03 03:09:00,3.5,0.5,29.54,North,351,2.0,2.0,87,0.00,,---,0.00,VWS V14.01,2013-01-03 12:09:00,
2013-01-03 03:14:00,3.5,0.5,29.54,NNE,28,3.0,3.0,87,0.00,,---,0.00,VWS V14.01,2013-01-03 12:14:00,
2013-01-03 03:19:00,3.7,0.7,29.54,North,360,1.0,1.0,87,0.00,,---,0.00,VWS V14.01,2013-01-03 12:19:00,
2013-01-03 03:24:00,3.8,0.8,29.54,WNW,292,1.0,2.0,87,0.00,,---,0.00,VWS V14.01,2013-01-03 12:24:00,
2013-01-03 03:29:00,4.0,1.0,29.54,North,355,2.0,2.0,87,0.00,,---,0.00,VWS V14.01,2013-01-03 12:29:00,
2013-01-03 03:34:00,4.1,1.3,29.54,North,355,1.0,1.0,88,0.00,,---,0.00,VWS V14.01,2013-01-03 12:34:00,
2013-01-03 03:39:00,4.2,1.4,29.54,NNW,339,2.0,3.0,88,0.00,,---,0.00,VWS V14.01,2013-01-03 12:39:00,
2013-01-03 03:44:00,4.3,1.5,29.54,North,5,3.0,3.0,88,0.00,,---,0.00,VWS V14.01,2013-01-03 12:44:00,
2013-01-03 03:49:00,4.5,1.7,29.54,NNW,343,2.0,2.0,88,0.00,,---,0.00,VWS V14.01,2013-01-03 12:49:00,
2013-01-03 03:54:00,4.6,1.8,29.54,NNW,343,2.0,2.0,88,0.00,,---,0.00,VWS V14.01,2013-01-03 12:54:00,
2013-01-03 03:59:00,4.9,2.1,29.54,North,9,2.0,3.0,88,0.00,,---,0.00,VWS V14.01,2013-01-03 12:59:00,
2013-01-03 04:04:00,5.0,2.2,29.54,North,360,2.0,2.0,88,0.00,,---,0.00,VWS V14.01,2013-01-03 13:04:00,
2013-01-03 04:09:00,5.1,2.3,29.54,NNW,340,1.0,1.0,88,0.00,,---,0.00,VWS V14.01,2013-01-03 13:09:00,
2013-01-03 04:14:00,5.3,2.5,29.54,NNW,329,1.0,2.0,88,0.00,,---,0.00,VWS V14.01,2013-01-03 13:14:00,
2013-01-03 04:19:00,5.4,2.6,29.54,NNW,329,1.0,2.0,88,0.00,,---,0.00,VWS V14.01,2013-01-03 13:19:00,
2013-01-03 04:24:00,5.5,2.7,29.54,NNW,329,2.0,2.0,88,0.00,,---,0.00,VWS V14.01,2013-01-03 13:24:00,
2013-01-03 04:29:00,5.6,2.8,29.54,NNW,329,1.0,2.0,88,0.00,,---,0.00,VWS V14.01,2013-01-03 13:29:00,
2013-01-03 04:34:00,5.6,2.8,29.54,NNW,329,1.0,1.0,88,0.00,,---,0.00,VWS V14.01,2013-01-03 13:34:00,
2013-01-03 04:39:00,5.6,2.8,29.54,NNW,329,2.0,2.0,88,0.00,,---,0.00,VWS V14.01,2013-01-03 13:39:00,
2013-01-03 04:44:00,5.6,2.6,29.54,NNW,329,1.0,1.0,87,0.00,,---,0.00,VWS V14.01,2013-01-03 13:44:00,
2013-01-03 04:49:00,5.6,2.6,29.54,NNW,329,1.0,1.0,87,0.00,,---,0.00,VWS V14.01,2013-01-03 13:49:00,
2013-01-03 04:54:00,5.6,2.6,29.54,NNW,329,1.0,2.0,87,0.00,,---,0.00,VWS V14.01,2013-01-03 13:54:00,
2013-01-03 04:59:00,5.5,2.5,29.54,North,360,2.0,2.0,87,0.00,,---,0.00,VWS V14.01,2013-01-03 13:59:00,
2013-01-03 05:04:00,5.4,2.4,29.55,North,360,1.0,3.0,87,0.00,,---,0.00,VWS V14.01,2013-01-03 14:04:00,
2013-01-03 05:09:00,5.3,2.0,29.55,North,360,1.0,2.0,86,0.00,,---,0.00,VWS V14.01,2013-01-03 14:09:00,
2013-01-03 05:14:00,5.2,1.9,29.55,North,360,1.0,1.0,86,0.00,,---,0.00,VWS V14.01,2013-01-03 14:14:00,
2013-01-03 05:19:00,5.1,1.8,29.55,NE,40,2.0,2.0,86,0.00,,---,0.00,VWS V14.01,2013-01-03 14:19:00,
2013-01-03 05:24:00,5.0,1.7,29.55,NE,40,2.0,2.0,86,0.00,,---,0.00,VWS V14.01,2013-01-03 14:24:00,
2013-01-03 05:29:00,5.0,1.7,29.55,NE,40,3.0,3.0,86,0.00,,---,0.00,VWS V14.01,2013-01-03 14:29:00,
2013-01-03 05:34:00,4.9,1.6,29.55,NE,46,1.0,3.0,86,0.00,,---,0.00,VWS V14.01,2013-01-03 14:34:00,
2013-01-03 05:39:00,4.9,1.6,29.54,NE,42,1.0,3.0,86,0.00,,---,0.00,VWS V14.01,2013-01-03 14:39:00,
2013-01-03 05:44:00,4.9,1.6,29.54,NE,35,3.0,3.0,86,0.00,,---,0.00,VWS V14.01,2013-01-03 14:44:00,
2013-01-03 05:49:00,4.9,1.9,29.54,NE,42,4.0,4.0,87,0.00,,---,0.00,VWS V14.01,2013-01-03 14:49:00,
2013-01-03 05:54:00,5.0,1.7,29.54,NE,45,2.0,3.0,86,0.00,,---,0.00,VWS V14.01,2013-01-03 14:54:00,
2013-01-03 05:59:00,5.0,2.0,29.55,NE,38,2.0,3.0,87,0.00,,---,0.00,VWS V14.01,2013-01-03 14:59:00,
2013-01-03 06:04:00,5.1,2.1,29.55,NNE,19,3.0,3.0,87,0.00,,---,0.00,VWS V14.01,2013-01-03 15:04:00,
2013-01-03 06:09:00,5.2,2.2,29.55,NNE,32,2.0,3.0,87,0.00,,---,0.00,VWS V14.01,2013-01-03 15:09:00,
2013-01-03 06:14:00,5.2,2.2,29.55,NNE,32,2.0,3.0,87,0.00,,---,0.00,VWS V14.01,2013-01-03 15:14:00,
2013-01-03 06:19:00,5.3,2.3,29.55,NNE,31,2.0,3.0,87,0.00,,---,0.00,VWS V14.01,2013-01-03 15:19:00,
2013-01-03 06:24:00,5.4,2.4,29.55,NNE,22,2.0,3.0,87,0.00,,---,0.00,VWS V14.01,2013-01-03 15:24:00,
2013-01-03 06:29:00,5.4,2.4,29.56,NNE,22,0.0,2.0,87,0.00,,---,0.00,VWS V14.01,2013-01-03 15:29:00,
2013-01-03 06:34:00,5.4,2.4,29.55,NNE,32,1.0,2.0,87,0.00,,---,0.00,VWS V14.01,2013-01-03 15:34:00,
2013-01-03 06:39:00,5.4,2.4,29.55,NE,36,3.0,3.0,87,0.00,,---,0.00,VWS V14.01,2013-01-03 15:39:00,
2013-01-03 06:44:00,5.3,2.0,29.55,NE,42,3.0,3.0,86,0.00,,---,0.00,VWS V14.01,2013-01-03 15:44:00,
2013-01-03 06:49:00,5.3,2.3,29.56,NE,34,1.0,1.0,87,0.00,,---,0.00,VWS V14.01,2013-01-03 15:49:00,
2013-01-03 06:54:00,5.3,2.3,29.56,NE,34,1.0,2.0,87,0.00,,---,0.00,VWS V14.01,2013-01-03 15:54:00,
2013-01-03 06:59:00,5.3,2.3,29.55,NNE,23,3.0,3.0,87,0.00,,---,0.00,VWS V14.01,2013-01-03 15:59:00,
2013-01-03 07:04:00,5.3,2.3,29.56,NNE,27,2.0,3.0,87,0.00,,---,0.00,VWS V14.01,2013-01-03 16:04:00,
2013-01-03 07:09:00,5.3,2.3,29.56,NE,35,3.0,4.0,87,0.00,,---,0.00,VWS V14.01,2013-01-03 16:09:00,
2013-01-03 07:14:00,5.3,2.3,29.56,NNE,22,2.0,2.0,87,0.00,,---,0.00,VWS V14.01,2013-01-03 16:14:00,
2013-01-03 07:19:00,5.3,2.3,29.56,NNE,19,0.0,2.0,87,0.00,,---,0.00,VWS V14.01,2013-01-03 16:19:00,
2013-01-03 07:24:00,5.4,2.4,29.56,NNE,19,0.0,1.0,87,0.00,,---,0.00,VWS V14.01,2013-01-03 16:24:00,
2013-01-03 07:29:00,5.4,2.4,29.56,NNE,19,1.0,1.0,87,0.00,,---,0.00,VWS V14.01,2013-01-03 16:29:00,
2013-01-03 07:34:00,5.5,2.5,29.56,NNE,19,0.0,1.0,87,0.00,,---,0.00,VWS V14.01,2013-01-03 16:34:00,
2013-01-03 07:39:00,5.6,2.6,29.56,NNE,19,0.0,2.0,87,0.00,,---,0.00,VWS V14.01,2013-01-03 16:39:00,
2013-01-03 07:44:00,5.7,2.9,29.56,NNE,19,1.0,1.0,88,0.00,,---,0.00,VWS V14.01,2013-01-03 16:44:00,
2013-01-03 07:49:00,5.8,2.8,29.56,NNE,19,1.0,1.0,87,0.00,,---,0.00,VWS V14.01,2013-01-03 16:49:00,
2013-01-03 07:54:00,5.9,3.1,29.57,NNE,19,1.0,1.0,88,0.00,,---,0.00,VWS V14.01,2013-01-03 16:54:00,
2013-01-03 07:59:00,6.0,3.2,29.57,NNE,19,0.0,1.0,88,0.00,,---,0.00,VWS V14.01,2013-01-03 16:59:00,
2013-01-03 08:04:00,6.1,3.3,29.57,NNE,19,0.0,1.0,88,0.00,,---,0.00,VWS V14.01,2013-01-03 17:04:00,
2013-01-03 08:09:00,6.2,3.4,29.57,NNE,19,0.0,0.0,88,0.00,,---,0.00,VWS V14.01,2013-01-03 17:09:00,
2013-01-03 08:14:00,6.3,3.5,29.57,NNE,19,0.0,0.0,88,0.00,,---,0.00,VWS V14.01,2013-01-03 17:14:00,
2013-01-03 08:19:00,6.4,3.6,29.57,NNE,19,0.0,1.0,88,0.00,,---,0.00,VWS V14.01,2013-01-03 17:19:00,
2013-01-03 08:24:00,6.5,3.7,29.57,NNE,19,0.0,0.0,88,0.00,,---,0.00,VWS V14.01,2013-01-03 17:24:00,
2013-01-03 08:29:00,6.7,3.9,29.57,NNE,19,0.0,1.0,88,0.00,,---,0.00,VWS V14.01,2013-01-03 17:29:00,
2013-01-03 08:34:00,6.9,4.1,29.57,ENE,61,2.0,2.0,88,0.00,,---,0.00,VWS V14.01,2013-01-03 17:34:00,
2013-01-03 08:39:00,7.0,4.2,29.58,ENE,61,0.0,1.0,88,0.00,,---,0.00,VWS V14.01,2013-01-03 17:39:00,
2013-01-03 08:44:00,7.1,4.3,29.58,ENE,61,0.0,1.0,88,0.00,,---,0.00,VWS V14.01,2013-01-03 17:44:00,
2013-01-03 08:49:00,7.2,4.4,29.58,NNE,20,2.0,2.0,88,0.00,,---,0.00,VWS V14.01,2013-01-03 17:49:00,
2013-01-03 08:54:00,7.3,4.8,29.58,NNE,20,2.0,2.0,89,0.00,,---,0.00,VWS V14.01,2013-01-03 17:54:00,
2013-01-03 08:59:00,7.4,4.8,29.58,NNE,18,2.0,3.0,89,0.00,,---,0.00,VWS V14.01,2013-01-03 17:59:00,
2013-01-03 09:04:00,7.6,5.0,29.58,NNE,13,3.0,3.0,89,0.00,,---,0.00,VWS V14.01,2013-01-03 18:04:00,
2013-01-03 09:09:00,7.7,5.1,29.58,NNE,13,1.0,1.0,89,0.00,,---,0.00,VWS V14.01,2013-01-03 18:09:00,
2013-01-03 09:14:00,7.8,5.2,29.58,NNE,13,2.0,2.0,89,0.00,,---,0.00,VWS V14.01,2013-01-03 18:14:00,
2013-01-03 09:19:00,7.9,5.1,29.58,NNE,13,1.0,2.0,88,0.00,,---,0.00,VWS V14.01,2013-01-03 18:19:00,
2013-01-03 09:24:00,7.9,5.3,29.58,NNE,13,3.0,3.0,89,0.00,,---,0.00,VWS V14.01,2013-01-03 18:24:00,
2013-01-03 09:29:00,8.0,5.2,29.59,NNE,32,2.0,2.0,88,0.00,,---,0.00,VWS V14.01,2013-01-03 18:29:00,
2013-01-03 09:34:00,8.0,5.2,29.59,NNE,32,1.0,1.0,88,0.00,,---,0.00,VWS V14.01,2013-01-03 18:34:00,
2013-01-03 09:39:00,8.0,5.2,29.60,NNE,32,2.0,2.0,88,0.00,,---,0.00,VWS V14.01,2013-01-03 18:39:00,
2013-01-03 09:45:00,8.0,5.2,29.60,NNE,32,0.0,0.0,88,0.00,,---,0.00,VWS V14.01,2013-01-03 18:45:00,
2013-01-03 09:50:00,8.0,5.2,29.60,NNE,32,1.0,1.0,88,0.00,,---,0.00,VWS V14.01,2013-01-03 18:50:00,
2013-01-03 09:55:00,7.8,4.7,29.60,NNE,32,2.0,2.0,87,0.00,,---,0.00,VWS V14.01,2013-01-03 18:55:00,
2013-01-03 10:00:00,7.7,4.7,29.60,NNE,13,1.0,1.0,87,0.00,,---,0.00,VWS V14.01,2013-01-03 19:00:00,
2013-01-03 10:05:00,7.5,4.4,29.60,NNE,13,1.0,2.0,87,0.00,,---,0.00,VWS V14.01,2013-01-03 19:05:00,
2013-01-03 10:10:00,7.3,4.2,29.60,NNE,20,2.0,3.0,87,0.00,,---,0.00,VWS V14.01,2013-01-03 19:10:00,
2013-01-03 10:15:00,7.2,3.9,29.60,NE,42,2.0,2.0,86,0.00,,---,0.00,VWS V14.01,2013-01-03 19:15:00,
2013-01-03 10:55:00,5.5,2.2,29.60,ENE,59,0.0,1.0,86,0.00,,---,0.00,VWS V14.01,2013-01-03 19:55:00,
2013-01-03 11:00:00,5.4,2.1,29.61,ENE,59,1.0,1.0,86,0.00,,---,0.00,VWS V14.01,2013-01-03 20:00:00,
2013-01-03 11:05:00,5.3,2.0,29.61,ENE,59,1.0,1.0,86,0.00,,---,0.00,VWS V14.01,2013-01-03 20:05:00,
2013-01-03 11:10:00,5.2,1.9,29.61,ENE,59,1.0,1.0,86,0.00,,---,0.00,VWS V14.01,2013-01-03 20:10:00,
2013-01-03 11:15:00,5.0,1.7,29.61,ENE,59,1.0,1.0,86,0.00,,---,0.00,VWS V14.01,2013-01-03 20:15:00,
2013-01-03 11:20:00,4.9,1.4,29.61,ENE,59,0.0,0.0,85,0.00,,---,0.00,VWS V14.01,2013-01-03 20:20:00,
2013-01-03 11:25:00,4.8,1.3,29.62,ENE,59,0.0,0.0,85,0.00,,---,0.00,VWS V14.01,2013-01-03 20:25:00,
2013-01-03 11:30:00,4.7,1.4,29.61,ENE,59,0.0,1.0,86,0.00,,---,0.00,VWS V14.01,2013-01-03 20:30:00,
2013-01-03 11:35:00,4.7,1.2,29.62,NE,53,2.0,2.0,85,0.00,,---,0.00,VWS V14.01,2013-01-03 20:35:00,
2013-01-03 11:40:00,4.6,1.1,29.62,NE,37,1.0,2.0,85,0.00,,---,0.00,VWS V14.01,2013-01-03 20:40:00,
2013-01-03 11:45:00,4.5,1.2,29.62,NNE,23,2.0,2.0,86,0.00,,---,0.00,VWS V14.01,2013-01-03 20:45:00,
2013-01-03 11:50:00,4.5,1.2,29.61,NNE,26,2.0,3.0,86,0.00,,---,0.00,VWS V14.01,2013-01-03 20:50:00,
2013-01-03 11:56:00,4.6,1.3,29.62,NE,36,1.0,1.0,86,0.00,,---,0.00,VWS V14.01,2013-01-03 20:56:00,
2013-01-03 12:01:00,4.6,1.3,29.62,NNE,32,1.0,1.0,86,0.00,,---,0.00,VWS V14.01,2013-01-03 21:01:00,
2013-01-03 12:05:00,4.7,1.4,29.62,NNW,340,1.0,1.0,86,0.00,,---,0.00,VWS V14.01,2013-01-03 21:05:00,
2013-01-03 12:11:00,4.8,1.5,29.62,NNW,343,1.0,2.0,86,0.00,,---,0.00,VWS V14.01,2013-01-03 21:11:00,
2013-01-03 12:15:00,4.9,1.9,29.62,NNW,343,2.0,2.0,87,0.00,,---,0.00,VWS V14.01,2013-01-03 21:15:00,
2013-01-03 12:21:00,5.0,2.0,29.62,NNE,33,0.0,3.0,87,0.00,,---,0.00,VWS V14.01,2013-01-03 21:21:00,
2013-01-03 12:26:00,5.1,2.1,29.62,NNE,33,2.0,2.0,87,0.00,,---,0.00,VWS V14.01,2013-01-03 21:26:00,
2013-01-03 12:31:00,5.3,2.3,29.62,NNE,33,1.0,1.0,87,0.00,,---,0.00,VWS V14.01,2013-01-03 21:31:00,
2013-01-03 12:36:00,5.6,2.6,29.62,NNE,33,0.0,0.0,87,0.00,,---,0.00,VWS V14.01,2013-01-03 21:36:00,
2013-01-03 12:41:00,5.8,3.0,29.62,NNE,33,2.0,2.0,88,0.00,,---,0.00,VWS V14.01,2013-01-03 21:41:00,
2013-01-03 12:46:00,5.9,3.1,29.62,NNE,33,0.0,1.0,88,0.00,,---,0.00,VWS V14.01,2013-01-03 21:46:00,
2013-01-03 12:51:00,6.1,3.3,29.63,NNE,33,0.0,0.0,88,0.00,,---,0.00,VWS V14.01,2013-01-03 21:51:00,
2013-01-03 12:56:00,6.2,3.4,29.63,NNE,33,0.0,0.0,88,0.00,,---,0.00,VWS V14.01,2013-01-03 21:56:00,
2013-01-03 13:01:00,6.3,3.5,29.62,NNE,33,0.0,0.0,88,0.00,,---,0.00,VWS V14.01,2013-01-03 22:01:00,
2013-01-03 13:06:00,6.5,3.7,29.62,NNE,33,0.0,0.0,88,0.00,,---,0.00,VWS V14.01,2013-01-03 22:06:00,
2013-01-03 13:11:00,6.6,3.8,29.63,NNE,33,0.0,0.0,88,0.00,,---,0.00,VWS V14.01,2013-01-03 22:11:00,
2013-01-03 13:16:00,6.8,4.0,29.63,NNE,33,0.0,0.0,88,0.00,,---,0.00,VWS V14.01,2013-01-03 22:16:00,
2013-01-03 13:21:00,6.9,4.1,29.63,NNE,33,0.0,0.0,88,0.00,,---,0.00,VWS V14.01,2013-01-03 22:21:00,
2013-01-03 13:26:00,6.9,4.1,29.63,NNE,33,0.0,0.0,88,0.00,,---,0.00,VWS V14.01,2013-01-03 22:26:00,
2013-01-03 13:31:00,7.0,4.2,29.63,NNE,33,0.0,0.0,88,0.00,,---,0.00,VWS V14.01,2013-01-03 22:31:00,
2013-01-03 13:36:00,7.0,4.2,29.63,NNE,33,0.0,1.0,88,0.00,,---,0.00,VWS V14.01,2013-01-03 22:36:00,
2013-01-03 13:41:00,7.1,4.3,29.63,NNE,33,1.0,1.0,88,0.00,,---,0.00,VWS V14.01,2013-01-03 22:41:00,
2013-01-03 13:46:00,7.1,4.3,29.63,NNE,33,1.0,1.0,88,0.00,,---,0.00,VWS V14.01,2013-01-03 22:46:00,
2013-01-03 13:51:00,7.1,4.1,29.63,North,360,2.0,2.0,87,0.00,,---,0.00,VWS V14.01,2013-01-03 22:51:00,
2013-01-03 13:56:00,7.1,4.1,29.63,North,360,2.0,2.0,87,0.00,,---,0.00,VWS V14.01,2013-01-03 22:56:00,
2013-01-03 14:01:00,7.1,4.1,29.62,North,355,0.0,2.0,87,0.00,,---,0.00,VWS V14.01,2013-01-03 23:01:00,
2013-01-03 14:06:00,7.1,4.1,29.63,NNW,342,1.0,2.0,87,0.00,,---,0.00,VWS V14.01,2013-01-03 23:06:00,
2013-01-03 14:11:00,7.1,4.1,29.63,NNW,342,0.0,0.0,87,0.00,,---,0.00,VWS V14.01,2013-01-03 23:11:00,
2013-01-03 14:16:00,7.1,4.1,29.62,NNW,343,1.0,2.0,87,0.00,,---,0.00,VWS V14.01,2013-01-03 23:16:00,
2013-01-03 14:21:00,7.1,4.1,29.63,NNW,343,0.0,0.0,87,0.00,,---,0.00,VWS V14.01,2013-01-03 23:21:00,
2013-01-03 14:26:00,7.0,4.0,29.63,NNW,343,1.0,2.0,87,0.00,,---,0.00,VWS V14.01,2013-01-03 23:26:00,
2013-01-03 14:31:00,6.9,3.9,29.63,NNW,343,0.0,1.0,87,0.00,,---,0.00,VWS V14.01,2013-01-03 23:31:00,
2013-01-03 14:36:00,6.9,3.9,29.63,NNW,343,1.0,2.0,87,0.00,,---,0.00,VWS V14.01,2013-01-03 23:36:00,
2013-01-03 14:41:00,6.8,3.8,29.63,NE,40,2.0,2.0,87,0.00,,---,0.00,VWS V14.01,2013-01-03 23:41:00,
2013-01-03 14:46:00,6.7,3.4,29.63,NE,40,1.0,2.0,86,0.00,,---,0.00,VWS V14.01,2013-01-03 23:46:00,
2013-01-03 14:51:00,6.5,3.2,29.62,NE,40,2.0,2.0,86,0.00,,---,0.00,VWS V14.01,2013-01-03 23:51:00,
2013-01-03 14:56:00,6.5,3.2,29.63,ENE,57,2.0,2.0,86,0.00,,---,0.00,VWS V14.01,2013-01-03 23:56:00,
2013-01-03 15:01:00,6.4,3.1,29.63,ENE,57,1.0,1.0,86,0.00,,---,0.00,VWS V14.01,2013-01-04 00:01:00,
2013-01-03 15:06:00,6.4,3.1,29.63,NE,56,1.0,1.0,86,0.00,,---,0.00,VWS V14.01,2013-01-04 00:06:00,
2013-01-03 15:11:00,6.3,3.0,29.62,North,5,1.0,1.0,86,0.00,,---,0.00,VWS V14.01,2013-01-04 00:11:00,
2013-01-03 15:16:00,6.2,2.9,29.62,North,5,0.0,0.0,86,0.00,,---,0.00,VWS V14.01,2013-01-04 00:16:00,
2013-01-03 15:21:00,6.1,2.8,29.62,North,5,0.0,1.0,86,0.00,,---,0.00,VWS V14.01,2013-01-04 00:21:00,
2013-01-03 15:26:00,6.1,2.8,29.62,North,5,0.0,1.0,86,0.00,,---,0.00,VWS V14.01,2013-01-04 00:26:00,
2013-01-03 15:31:00,6.0,2.7,29.62,North,5,0.0,0.0,86,0.00,,---,0.00,VWS V14.01,2013-01-04 00:31:00,
2013-01-03 15:36:00,5.9,2.6,29.62,North,5,0.0,0.0,86,0.00,,---,0.00,VWS V14.01,2013-01-04 00:36:00,
2013-01-03 15:41:00,5.9,2.6,29.62,North,5,0.0,0.0,86,0.00,,---,0.00,VWS V14.01,2013-01-04 00:41:00,
2013-01-03 15:46:00,5.8,2.5,29.62,North,5,0.0,0.0,86,0.00,,---,0.00,VWS V14.01,2013-01-04 00:46:00,
2013-01-03 15:51:00,5.8,2.5,29.62,North,5,0.0,0.0,86,0.00,,---,0.00,VWS V14.01,2013-01-04 00:51:00,
2013-01-03 15:56:00,5.7,2.4,29.62,North,5,0.0,0.0,86,0.00,,---,0.00,VWS V14.01,2013-01-04 00:56:00,
2013-01-03 16:01:00,5.7,2.4,29.62,North,5,0.0,0.0,86,0.00,,---,0.00,VWS V14.01,2013-01-04 01:01:00,
2013-01-03 16:06:00,5.7,2.7,29.62,North,5,0.0,0.0,87,0.00,,---,0.00,VWS V14.01,2013-01-04 01:06:00,
2013-01-03 16:11:00,5.7,2.7,29.62,North,5,0.0,0.0,87,0.00,,---,0.00,VWS V14.01,2013-01-04 01:11:00,
2013-01-03 16:16:00,5.7,2.7,29.62,North,5,0.0,0.0,87,0.00,,---,0.00,VWS V14.01,2013-01-04 01:16:00,
2013-01-03 16:21:00,5.7,2.7,29.62,North,9,0.0,0.0,87,0.00,,---,0.00,VWS V14.01,2013-01-04 01:21:00,
2013-01-03 16:26:00,5.7,2.7,29.62,North,5,0.0,0.0,87,0.00,,---,0.00,VWS V14.01,2013-01-04 01:26:00,
2013-01-03 16:31:00,5.6,2.6,29.62,North,5,0.0,1.0,87,0.00,,---,0.00,VWS V14.01,2013-01-04 01:31:00,
2013-01-03 16:36:00,5.6,2.6,29.62,North,5,1.0,1.0,87,0.00,,---,0.00,VWS V14.01,2013-01-04 01:36:00,
2013-01-03 16:41:00,5.6,2.6,29.62,WSW,247,1.0,2.0,87,0.00,,---,0.00,VWS V14.01,2013-01-04 01:41:00,
2013-01-03 16:46:00,5.6,2.6,29.62,WSW,246,0.0,1.0,87,0.00,,---,0.00,VWS V14.01,2013-01-04 01:46:00,
2013-01-03 16:51:00,5.6,2.3,29.62,WSW,246,0.0,1.0,86,0.00,,---,0.00,VWS V14.01,2013-01-04 01:51:00,
2013-01-03 16:56:00,5.6,2.6,29.62,WSW,246,0.0,1.0,87,0.00,,---,0.00,VWS V14.01,2013-01-04 01:56:00,
2013-01-03 17:01:00,5.6,2.6,29.62,WSW,247,1.0,1.0,87,0.00,,---,0.00,VWS V14.01,2013-01-04 02:01:00,
2013-01-03 17:06:00,5.6,2.6,29.62,WSW,247,1.0,2.0,87,0.00,,---,0.00,VWS V14.01,2013-01-04 02:06:00,
2013-01-03 17:11:00,5.7,2.7,29.62,WSW,247,2.0,2.0,87,0.00,,---,0.00,VWS V14.01,2013-01-04 02:11:00,
2013-01-03 17:16:00,5.7,2.7,29.62,WSW,247,1.0,2.0,87,0.00,,---,0.00,VWS V14.01,2013-01-04 02:16:00,
2013-01-03 17:21:00,5.7,2.7,29.63,WSW,247,2.0,2.0,87,0.00,,---,0.00,VWS V14.01,2013-01-04 02:21:00,
2013-01-03 17:26:00,5.7,2.7,29.62,WSW,247,1.0,2.0,87,0.00,,---,0.00,VWS V14.01,2013-01-04 02:26:00,
2013-01-03 17:31:00,5.6,2.6,29.62,WSW,247,1.0,2.0,87,0.00,,---,0.00,VWS V14.01,2013-01-04 02:31:00,
2013-01-03 17:36:00,5.6,2.3,29.62,WSW,247,2.0,2.0,86,0.00,,---,0.00,VWS V14.01,2013-01-04 02:36:00,
2013-01-03 17:41:00,5.5,2.2,29.62,WSW,247,0.0,2.0,86,0.00,,---,0.00,VWS V14.01,2013-01-04 02:41:00,
2013-01-03 17:46:00,5.4,2.1,29.62,WSW,247,0.0,0.0,86,0.00,,---,0.00,VWS V14.01,2013-01-04 02:46:00,
2013-01-03 17:51:00,5.3,2.0,29.62,WSW,247,0.0,0.0,86,0.00,,---,0.00,VWS V14.01,2013-01-04 02:51:00,
2013-01-03 17:56:00,5.2,1.9,29.62,WSW,247,0.0,0.0,86,0.00,,---,0.00,VWS V14.01,2013-01-04 02:56:00,
2013-01-03 18:01:00,5.1,1.8,29.62,WSW,247,0.0,0.0,86,0.00,,---,0.00,VWS V14.01,2013-01-04 03:01:00,
2013-01-03 18:06:00,5.0,1.7,29.62,WSW,247,1.0,1.0,86,0.00,,---,0.00,VWS V14.01,2013-01-04 03:06:00,
2013-01-03 18:11:00,4.9,1.6,29.62,WSW,247,1.0,1.0,86,0.00,,---,0.00,VWS V14.01,2013-01-04 03:11:00,
2013-01-03 18:16:00,4.8,1.5,29.62,WSW,247,0.0,0.0,86,0.00,,---,0.00,VWS V14.01,2013-01-04 03:16:00,
2013-01-03 18:21:00,4.7,1.4,29.62,WSW,247,1.0,2.0,86,0.00,,---,0.00,VWS V14.01,2013-01-04 03:21:00,
2013-01-03 18:26:00,4.7,1.4,29.61,WSW,247,2.0,2.0,86,0.00,,---,0.00,VWS V14.01,2013-01-04 03:26:00,
2013-01-03 18:31:00,4.8,1.8,29.61,WSW,247,0.0,1.0,87,0.00,,---,0.00,VWS V14.01,2013-01-04 03:31:00,
2013-01-03 18:36:00,4.8,1.5,29.61,WSW,247,0.0,0.0,86,0.00,,---,0.00,VWS V14.01,2013-01-04 03:36:00,
2013-01-03 18:41:00,4.8,1.5,29.62,WSW,247,0.0,1.0,86,0.00,,---,0.00,VWS V14.01,2013-01-04 03:41:00,
2013-01-03 18:46:00,4.7,1.4,29.61,WSW,247,0.0,0.0,86,0.00,,---,0.00,VWS V14.01,2013-01-04 03:46:00,
2013-01-03 18:52:00,4.7,1.4,29.61,WSW,247,0.0,0.0,86,0.00,,---,0.00,VWS V14.01,2013-01-04 03:52:00,
2013-01-03 18:57:00,4.7,1.7,29.61,WSW,247,0.0,0.0,87,0.00,,---,0.00,VWS V14.01,2013-01-04 03:57:00,
2013-01-03 19:02:00,4.7,1.7,29.61,WSW,247,0.0,0.0,87,0.00,,---,0.00,VWS V14.01,2013-01-04 04:02:00,
2013-01-03 19:07:00,4.7,1.7,29.61,WSW,247,0.0,0.0,87,0.00,,---,0.00,VWS V14.01,2013-01-04 04:07:00,
2013-01-03 19:12:00,4.7,1.7,29.61,WSW,247,0.0,0.0,87,0.00,,---,0.00,VWS V14.01,2013-01-04 04:12:00,
2013-01-03 19:17:00,4.7,1.7,29.61,WSW,247,0.0,0.0,87,0.00,,---,0.00,VWS V14.01,2013-01-04 04:17:00,
2013-01-03 19:22:00,4.7,1.7,29.61,WSW,247,0.0,0.0,87,0.00,,---,0.00,VWS V14.01,2013-01-04 04:22:00,
2013-01-03 19:27:00,4.7,1.7,29.61,WSW,247,0.0,0.0,87,0.00,,---,0.00,VWS V14.01,2013-01-04 04:27:00,
2013-01-03 19:32:00,4.6,1.3,29.61,WSW,247,1.0,1.0,86,0.00,,---,0.00,VWS V14.01,2013-01-04 04:32:00,
2013-01-03 19:37:00,4.6,1.3,29.61,WSW,247,0.0,0.0,86,0.00,,---,0.00,VWS V14.01,2013-01-04 04:37:00,
2013-01-03 19:42:00,4.5,1.2,29.61,WSW,247,0.0,0.0,86,0.00,,---,0.00,VWS V14.01,2013-01-04 04:42:00,
2013-01-03 19:47:00,4.5,1.2,29.61,WSW,247,0.0,0.0,86,0.00,,---,0.00,VWS V14.01,2013-01-04 04:47:00,
2013-01-03 19:52:00,4.5,1.2,29.61,WSW,247,0.0,0.0,86,0.00,,---,0.00,VWS V14.01,2013-01-04 04:52:00,
2013-01-03 19:57:00,4.5,1.2,29.61,WSW,247,0.0,0.0,86,0.00,,---,0.00,VWS V14.01,2013-01-04 04:57:00,
2013-01-03 20:00:00,4.5,1.5,29.61,WSW,247,0.0,0.0,87,0.00,,---,0.00,VWS V14.01,2013-01-04 05:00:00,
2013-01-03 20:01:00,4.6,1.6,29.61,WSW,247,0.0,0.0,87,0.00,,---,0.00,VWS V14.01,2013-01-04 05:01:00,
2013-01-03 20:03:00,4.5,1.2,29.61,WSW,247,0.0,0.0,86,0.00,,---,0.00,VWS V14.01,2013-01-04 05:03:00,
2013-01-03 20:08:00,4.5,1.2,29.61,WSW,247,0.0,0.0,86,0.00,,---,0.00,VWS V14.01,2013-01-04 05:08:00,
2013-01-03 20:13:00,4.6,1.3,29.60,WSW,247,0.0,2.0,86,0.00,,---,0.00,VWS V14.01,2013-01-04 05:13:00,
2013-01-03 20:18:00,4.6,1.3,29.61,WSW,247,0.0,0.0,86,0.00,,---,0.00,VWS V14.01,2013-01-04 05:18:00,
2013-01-03 20:23:00,4.5,1.2,29.60,WSW,247,1.0,1.0,86,0.00,,---,0.00,VWS V14.01,2013-01-04 05:23:00,
2013-01-03 20:28:00,4.5,1.2,29.60,WSW,247,0.0,0.0,86,0.00,,---,0.00,VWS V14.01,2013-01-04 05:28:00,
2013-01-03 20:33:00,4.5,1.2,29.60,WSW,247,0.0,0.0,86,0.00,,---,0.00,VWS V14.01,2013-01-04 05:33:00,
2013-01-03 20:38:00,4.5,1.2,29.60,WSW,247,0.0,0.0,86,0.00,,---,0.00,VWS V14.01,2013-01-04 05:38:00,
2013-01-03 20:43:00,4.5,1.2,29.60,WSW,247,0.0,0.0,86,0.00,,---,0.00,VWS V14.01,2013-01-04 05:43:00,
2013-01-03 20:48:00,4.4,1.1,29.61,WSW,247,1.0,1.0,86,0.00,,---,0.00,VWS V14.01,2013-01-04 05:48:00,
2013-01-03 20:53:00,4.4,1.4,29.61,WSW,247,0.0,1.0,87,0.00,,---,0.00,VWS V14.01,2013-01-04 05:53:00,
2013-01-03 20:58:00,4.5,1.5,29.60,WSW,247,0.0,0.0,87,0.00,,---,0.00,VWS V14.01,2013-01-04 05:58:00,
2013-01-03 21:03:00,4.5,1.5,29.60,WSW,247,0.0,0.0,87,0.00,,---,0.00,VWS V14.01,2013-01-04 06:03:00,
2013-01-03 21:08:00,4.5,1.5,29.60,WSW,247,0.0,0.0,87,0.00,,---,0.00,VWS V14.01,2013-01-04 06:08:00,
2013-01-03 21:13:00,4.6,1.6,29.60,WSW,247,0.0,0.0,87,0.00,,---,0.00,VWS V14.01,2013-01-04 06:13:00,
2013-01-03 21:18:00,4.7,1.7,29.60,WSW,247,0.0,0.0,87,0.00,,---,0.00,VWS V14.01,2013-01-04 06:18:00,
2013-01-03 21:23:00,4.9,1.9,29.60,WSW,247,0.0,0.0,87,0.00,,---,0.00,VWS V14.01,2013-01-04 06:23:00,
2013-01-03 21:28:00,5.0,2.2,29.60,WSW,247,0.0,0.0,88,0.00,,---,0.00,VWS V14.01,2013-01-04 06:28:00,
2013-01-03 21:33:00,5.1,2.3,29.60,WSW,247,0.0,0.0,88,0.00,,---,0.00,VWS V14.01,2013-01-04 06:33:00,
2013-01-03 21:38:00,5.3,2.5,29.60,North,5,0.0,1.0,88,0.00,,---,0.00,VWS V14.01,2013-01-04 06:38:00,
2013-01-03 21:43:00,5.5,2.7,29.60,North,5,0.0,0.0,88,0.00,,---,0.00,VWS V14.01,2013-01-04 06:43:00,
2013-01-03 21:48:00,5.5,2.7,29.60,North,5,0.0,0.0,88,0.00,,---,0.00,VWS V14.01,2013-01-04 06:48:00,
2013-01-03 21:53:00,5.7,2.9,29.60,North,5,0.0,0.0,88,0.00,,---,0.00,VWS V14.01,2013-01-04 06:53:00,
2013-01-03 21:58:00,5.9,3.1,29.60,North,5,0.0,0.0,88,0.00,,---,0.00,VWS V14.01,2013-01-04 06:58:00,
2013-01-03 22:03:00,5.9,3.1,29.60,North,9,0.0,0.0,88,0.00,,---,0.00,VWS V14.01,2013-01-04 07:03:00,
2013-01-03 22:08:00,6.0,3.2,29.61,North,5,0.0,1.0,88,0.00,,---,0.00,VWS V14.01,2013-01-04 07:08:00,
2013-01-03 22:13:00,6.1,3.3,29.61,North,5,1.0,1.0,88,0.00,,---,0.00,VWS V14.01,2013-01-04 07:13:00,
2013-01-03 22:18:00,6.1,3.3,29.60,North,9,0.0,0.0,88,0.00,,---,0.00,VWS V14.01,2013-01-04 07:18:00,
2013-01-03 22:23:00,6.2,3.4,29.61,North,5,0.0,0.0,88,0.00,,---,0.00,VWS V14.01,2013-01-04 07:23:00,
2013-01-03 22:28:00,6.2,3.4,29.61,North,5,0.0,1.0,88,0.00,,---,0.00,VWS V14.01,2013-01-04 07:28:00,
2013-01-03 22:33:00,6.3,3.5,29.61,North,5,1.0,1.0,88,0.00,,---,0.00,VWS V14.01,2013-01-04 07:33:00,
2013-01-03 22:38:00,6.4,3.6,29.61,North,5,1.0,1.0,88,0.00,,---,0.00,VWS V14.01,2013-01-04 07:38:00,
2013-01-03 22:43:00,6.5,3.7,29.61,North,5,0.0,1.0,88,0.00,,---,0.00,VWS V14.01,2013-01-04 07:43:00,
2013-01-03 22:48:00,6.6,3.8,29.61,North,5,0.0,0.0,88,0.00,,---,0.00,VWS V14.01,2013-01-04 07:48:00,
2013-01-03 22:53:00,6.7,3.9,29.61,North,5,0.0,1.0,88,0.00,,---,0.00,VWS V14.01,2013-01-04 07:53:00,
2013-01-03 22:58:00,6.8,4.0,29.61,North,5,0.0,0.0,88,0.00,,---,0.00,VWS V14.01,2013-01-04 07:58:00,
2013-01-03 23:03:00,6.9,4.1,29.61,NE,46,1.0,1.0,88,0.00,,---,0.00,VWS V14.01,2013-01-04 08:03:00,
2013-01-03 23:09:00,7.0,4.2,29.61,NE,46,1.0,1.0,88,0.00,,---,0.00,VWS V14.01,2013-01-04 08:09:00,
2013-01-03 23:13:00,7.0,4.2,29.61,NE,46,0.0,1.0,88,0.00,,---,0.00,VWS V14.01,2013-01-04 08:13:00,
2013-01-03 23:18:00,7.1,4.3,29.61,NE,46,1.0,1.0,88,0.00,,---,0.00,VWS V14.01,2013-01-04 08:18:00,
2013-01-03 23:23:00,7.1,4.3,29.61,NE,46,0.0,0.0,88,0.00,,---,0.00,VWS V14.01,2013-01-04 08:23:00,
2013-01-03 23:28:00,7.1,4.3,29.61,NE,46,0.0,0.0,88,0.00,,---,0.00,VWS V14.01,2013-01-04 08:28:00,
2013-01-03 23:33:00,7.1,4.3,29.61,NE,46,1.0,1.0,88,0.00,,---,0.00,VWS V14.01,2013-01-04 08:33:00,
2013-01-03 23:38:00,7.1,4.3,29.61,NE,46,0.0,0.0,88,0.00,,---,0.00,VWS V14.01,2013-01-04 08:38:00,
2013-01-03 23:43:00,7.2,4.4,29.61,NE,46,0.0,0.0,88,0.00,,---,0.00,VWS V14.01,2013-01-04 08:43:00,
2013-01-03 23:48:00,7.1,4.3,29.61,NE,46,0.0,0.0,88,0.00,,---,0.00,VWS V14.01,2013-01-04 08:48:00,
2013-01-03 23:53:00,7.1,4.3,29.61,NE,46,0.0,0.0,88,0.00,,---,0.00,VWS V14.01,2013-01-04 08:53:00,
2013-01-03 23:58:00,7.2,4.4,29.61,NE,46,0.0,0.0,88,0.00,,---,0.00,VWS V14.01,2013-01-04 08:58:00,